createdAt,value
2019-01-15T00:01:38.696Z,86.17
2019-01-15T00:04:08.649Z,86.11
2019-01-15T00:06:38.647Z,85.99
2019-01-15T00:09:09.362Z,85.98
2019-01-15T00:11:39.686Z,85.95
2019-01-15T00:14:09.618Z,85.97
2019-01-15T00:16:39.587Z,85.84
2019-01-15T00:19:10.524Z,85.72
2019-01-15T00:21:41.770Z,85.76
2019-01-15T00:24:11.732Z,85.63
2019-01-15T00:29:36.189Z,86.00
2019-01-15T00:32:07.238Z,85.84
2019-01-15T00:34:37.561Z,85.85
2019-01-15T00:37:07.534Z,85.99
2019-01-15T00:39:37.533Z,86.05
2019-01-15T00:42:15.062Z,86.02
2019-01-15T00:44:39.319Z,86.00
2019-01-15T00:47:09.592Z,85.85
2019-01-15T00:49:39.557Z,85.68
2019-01-15T00:52:10.988Z,85.71
2019-01-15T00:54:41.249Z,85.66
2019-01-15T00:57:11.132Z,85.44
2019-01-15T00:59:41.410Z,85.40
2019-01-15T01:02:11.367Z,85.57
2019-01-15T01:04:41.447Z,85.34
2019-01-15T01:07:11.396Z,85.45
2019-01-15T01:09:41.360Z,85.44
2019-01-15T01:12:11.383Z,85.27
2019-01-15T01:14:41.333Z,85.58
2019-01-15T01:17:11.736Z,85.99
2019-01-15T01:19:41.700Z,86.00
2019-01-15T01:22:11.649Z,85.83
2019-01-15T01:24:41.626Z,85.70
2019-01-15T01:27:11.597Z,85.66
2019-01-15T01:29:41.465Z,85.71
2019-01-15T01:32:11.341Z,85.42
2019-01-15T01:34:42.248Z,85.17
2019-01-15T01:37:12.226Z,85.23
2019-01-15T01:39:42.167Z,85.37
2019-01-15T01:42:12.142Z,85.30
2019-01-15T01:44:43.377Z,85.16
2019-01-15T01:47:13.372Z,85.28
2019-01-15T01:49:43.639Z,85.24
2019-01-15T01:52:14.651Z,85.50
2019-01-15T01:54:44.596Z,85.60
2019-01-15T01:57:14.535Z,85.69
2019-01-15T01:59:44.479Z,85.55
2019-01-15T02:02:15.390Z,85.59
2019-01-15T02:04:45.360Z,85.79
2019-01-15T02:07:15.317Z,85.90
2019-01-15T02:09:45.666Z,86.06
2019-01-15T02:12:15.962Z,86.00
2019-01-15T02:14:45.917Z,85.91
2019-01-15T02:17:16.538Z,86.15
2019-01-15T02:19:46.758Z,86.39
2019-01-15T02:22:17.032Z,86.33
2019-01-15T02:24:46.905Z,86.28
2019-01-15T02:27:17.151Z,86.46
2019-01-15T02:29:47.022Z,86.26
2019-01-15T02:32:17.250Z,85.95
2019-01-15T02:34:47.187Z,86.02
2019-01-15T02:37:17.196Z,85.88
2019-01-15T02:39:47.472Z,86.09
2019-01-15T02:42:17.443Z,86.10
2019-01-15T02:44:47.392Z,86.17
2019-01-15T02:47:17.339Z,86.26
2019-01-15T02:49:47.299Z,86.29
2019-01-15T02:52:17.252Z,86.17
2019-01-15T02:54:47.200Z,86.26
2019-01-15T02:57:17.182Z,86.36
2019-01-15T02:59:47.113Z,86.46
2019-01-15T03:19:36.531Z,85.76
2019-01-15T03:22:06.494Z,86.14
2019-01-15T03:24:36.483Z,86.12
2019-01-15T03:27:07.930Z,86.28
2019-01-15T03:29:37.914Z,86.51
2019-01-15T03:32:07.881Z,86.58
2019-01-15T03:34:38.163Z,86.75
2019-01-15T03:37:08.094Z,86.93
2019-01-15T03:39:38.554Z,87.25
2019-01-15T03:42:08.491Z,87.16
2019-01-15T03:44:38.436Z,87.18
2019-01-15T03:47:08.386Z,87.11
2019-01-15T03:49:38.268Z,87.31
2019-01-15T03:52:08.235Z,87.46
2019-01-15T03:54:38.207Z,87.46
2019-01-15T03:57:08.158Z,87.43
2019-01-15T03:59:38.153Z,87.41
2019-01-15T04:02:08.977Z,87.31
2019-01-15T04:04:39.336Z,87.43
2019-01-15T04:07:09.664Z,87.65
2019-01-15T04:09:40.461Z,87.80
2019-01-15T04:12:10.448Z,87.84
2019-01-15T04:14:40.416Z,87.87
2019-01-15T04:17:10.316Z,87.72
2019-01-15T04:19:40.261Z,87.87
2019-01-15T04:22:11.685Z,87.87
2019-01-15T04:24:41.543Z,87.93
2019-01-15T04:27:11.484Z,87.93
2019-01-15T04:29:41.798Z,87.92
2019-01-15T04:32:11.744Z,87.84
2019-01-15T04:34:41.608Z,87.43
2019-01-15T04:37:11.572Z,87.56
2019-01-15T04:39:41.517Z,87.58
2019-01-15T04:42:11.488Z,87.62
2019-01-15T04:44:42.876Z,87.61
2019-01-15T04:47:12.838Z,87.66
2019-01-15T04:49:42.801Z,87.68
2019-01-15T04:52:12.692Z,87.63
2019-01-15T04:54:43.757Z,87.69
2019-01-15T04:57:14.004Z,87.65
2019-01-15T04:59:43.944Z,87.79
2019-01-15T05:02:13.907Z,87.81
2019-01-15T05:04:43.881Z,87.87
2019-01-15T05:07:13.856Z,87.97
2019-01-15T05:09:43.739Z,88.13
2019-01-15T05:12:13.689Z,88.29
2019-01-15T05:14:44.030Z,88.33
2019-01-15T05:17:14.263Z,88.32
2019-01-15T05:19:44.473Z,88.36
2019-01-15T05:22:14.931Z,88.40
2019-01-15T05:24:44.873Z,88.22
2019-01-15T05:27:14.827Z,88.23
2019-01-15T05:29:44.749Z,88.23
2019-01-15T05:32:14.695Z,87.97
2019-01-15T05:34:44.666Z,87.89
2019-01-15T05:37:14.616Z,87.91
2019-01-15T05:39:44.582Z,87.92
2019-01-15T05:42:14.612Z,87.96
2019-01-15T05:44:44.882Z,87.97
2019-01-15T05:47:16.465Z,88.11
2019-01-15T05:49:46.341Z,88.02
2019-01-15T05:52:16.319Z,88.09
2019-01-15T05:54:46.274Z,88.12
2019-01-15T05:57:16.698Z,88.19
2019-01-15T05:59:46.866Z,88.15
2019-01-15T06:02:16.813Z,88.11
2019-01-15T06:04:46.792Z,88.17
2019-01-15T06:07:17.290Z,88.22
2019-01-15T06:09:47.292Z,88.01
2019-01-15T06:12:17.197Z,87.79
2019-01-15T06:14:47.142Z,87.69
2019-01-15T06:17:17.108Z,87.63
2019-01-15T06:19:47.090Z,87.54
2019-01-15T06:22:17.050Z,87.52
2019-01-15T06:24:47.008Z,87.49
2019-01-15T06:27:17.328Z,87.31
2019-01-15T06:29:47.277Z,87.08
2019-01-15T06:32:17.255Z,86.90
2019-01-15T06:34:48.907Z,86.71
2019-01-15T06:37:18.868Z,86.65
2019-01-15T06:39:48.865Z,86.71
2019-01-15T06:42:18.871Z,86.55
2019-01-15T06:44:49.147Z,86.59
2019-01-15T06:47:19.114Z,86.59
2019-01-15T06:49:49.357Z,86.50
2019-01-15T06:52:19.333Z,86.68
2019-01-15T06:54:49.311Z,86.48
2019-01-15T06:57:19.258Z,86.31
2019-01-15T06:59:49.224Z,86.24
2019-01-15T07:02:19.189Z,86.07
2019-01-15T07:04:49.218Z,85.67
2019-01-15T07:07:19.506Z,85.52
2019-01-15T07:09:49.490Z,85.46
2019-01-15T07:12:19.463Z,85.14
2019-01-15T07:14:49.426Z,85.08
2019-01-15T07:17:19.369Z,84.98
2019-01-15T07:19:49.337Z,84.68
2019-01-15T07:22:19.294Z,84.88
2019-01-15T07:24:49.277Z,84.95
2019-01-15T07:27:19.229Z,84.84
2019-01-15T07:29:49.175Z,84.60
2019-01-15T07:32:19.169Z,84.76
2019-01-15T07:34:49.135Z,84.66
2019-01-15T07:37:19.092Z,84.62
2019-01-15T07:39:49.067Z,84.71
2019-01-15T07:42:19.074Z,84.55
2019-01-15T07:44:49.046Z,84.79
2019-01-15T07:47:19.023Z,84.87
2019-01-15T07:49:48.970Z,84.96
2019-01-15T07:52:19.052Z,84.84
2019-01-15T07:54:49.022Z,84.85
2019-01-15T07:57:18.988Z,84.93
2019-01-15T07:59:49.299Z,84.97
2019-01-15T08:02:20.254Z,85.26
2019-01-15T08:04:50.499Z,85.24
2019-01-15T08:07:20.453Z,85.42
2019-01-15T08:09:51.763Z,85.46
2019-01-15T08:12:21.799Z,85.49
2019-01-15T08:14:51.750Z,85.58
2019-01-15T08:17:21.724Z,85.52
2019-01-15T08:19:51.687Z,85.65
2019-01-15T08:22:21.665Z,85.76
2019-01-15T08:24:51.618Z,85.86
2019-01-15T08:27:21.608Z,85.89
2019-01-15T08:29:51.574Z,86.02
2019-01-15T08:32:21.812Z,86.17
2019-01-15T08:34:51.762Z,86.23
2019-01-15T08:37:22.048Z,86.28
2019-01-15T08:39:53.042Z,86.43
2019-01-15T08:42:22.964Z,86.54
2019-01-15T08:44:52.934Z,86.71
2019-01-15T08:47:23.449Z,86.78
2019-01-15T08:49:53.406Z,86.99
2019-01-15T08:52:23.362Z,87.18
2019-01-15T08:54:53.359Z,87.28
2019-01-15T08:57:23.473Z,87.29
2019-01-15T08:59:54.053Z,87.18
2019-01-15T09:02:24.104Z,87.13
2019-01-15T09:04:54.069Z,87.13
2019-01-15T09:07:24.637Z,87.14
2019-01-15T09:09:54.628Z,87.02
2019-01-15T09:12:24.580Z,87.07
2019-01-15T09:14:54.562Z,87.16
2019-01-15T09:17:24.513Z,87.16
2019-01-15T09:19:54.501Z,87.02
2019-01-15T09:22:24.455Z,86.80
2019-01-15T09:24:54.495Z,86.85
2019-01-15T09:27:24.455Z,86.75
2019-01-15T09:29:54.528Z,86.76
2019-01-15T09:32:24.480Z,86.76
2019-01-15T09:34:54.554Z,86.54
2019-01-15T09:37:24.709Z,86.62
2019-01-15T09:39:54.770Z,86.66
2019-01-15T09:42:24.766Z,86.56
2019-01-15T09:44:54.864Z,86.36
2019-01-15T09:47:24.841Z,86.13
2019-01-15T09:49:54.815Z,86.04
2019-01-15T09:52:24.825Z,86.22
2019-01-15T09:54:54.824Z,86.11
2019-01-15T09:57:24.785Z,86.28
2019-01-15T09:59:54.777Z,86.21
2019-01-15T10:02:24.889Z,86.15
2019-01-15T10:04:54.859Z,85.80
2019-01-15T10:07:24.815Z,85.47
2019-01-15T10:09:54.840Z,85.45
2019-01-15T10:12:24.804Z,85.51
2019-01-15T10:14:54.837Z,85.40
2019-01-15T10:17:25.900Z,85.50
2019-01-15T10:19:56.334Z,85.20
2019-01-15T10:22:26.285Z,85.04
2019-01-15T10:24:56.246Z,84.92
2019-01-15T10:27:26.468Z,84.87
2019-01-15T10:29:59.780Z,84.87
2019-01-15T10:32:53.611Z,84.56
2019-01-15T10:35:32.341Z,83.76
2019-01-15T10:38:02.366Z,83.89
2019-01-15T10:40:32.319Z,84.07
2019-01-15T10:43:02.286Z,83.39
2019-01-15T10:45:32.239Z,83.32
2019-01-15T10:48:02.230Z,83.18
2019-01-15T10:50:32.183Z,82.76
2019-01-15T10:53:02.266Z,82.67
2019-01-15T10:55:32.600Z,82.58
2019-01-15T10:58:02.611Z,81.27
2019-01-15T11:00:32.557Z,81.18
2019-01-15T11:03:02.862Z,81.27
2019-01-15T11:05:32.813Z,80.98
2019-01-15T11:08:03.106Z,80.07
2019-01-15T11:10:33.053Z,80.15
2019-01-15T11:13:03.228Z,80.52
2019-01-15T11:15:33.164Z,80.20
2019-01-15T11:18:03.228Z,79.01
2019-01-15T11:20:33.489Z,78.72
2019-01-15T11:23:03.499Z,78.46
2019-01-15T11:25:33.367Z,78.26
2019-01-15T11:28:04.508Z,77.90
2019-01-15T11:30:34.526Z,77.77
2019-01-15T11:33:04.587Z,77.53
2019-01-15T11:35:34.531Z,76.59
2019-01-15T11:38:04.824Z,76.32
2019-01-15T11:40:35.420Z,76.46
2019-01-15T11:43:05.654Z,76.55
2019-01-15T11:45:35.906Z,76.54
2019-01-15T11:48:07.966Z,76.79
2019-01-15T11:50:38.267Z,76.72
2019-01-15T11:53:08.238Z,77.15
2019-01-15T11:55:38.756Z,76.80
2019-01-15T11:58:08.734Z,77.21
2019-01-15T12:00:45.958Z,77.05
2019-01-15T12:03:30.148Z,77.21
2019-01-15T12:06:34.421Z,77.06
2019-01-15T12:09:17.593Z,76.86
2019-01-15T12:12:15.510Z,77.21
2019-01-15T12:15:10.845Z,77.39
2019-01-15T12:17:50.863Z,77.58
2019-01-15T12:20:49.116Z,77.02
2019-01-15T12:23:39.148Z,77.10
2019-01-15T12:26:43.758Z,77.27
2019-01-15T12:29:26.028Z,77.41
2019-01-15T12:32:20.535Z,77.41
2019-01-15T12:35:15.572Z,77.44
2019-01-15T12:38:13.558Z,77.02
2019-01-15T12:41:01.199Z,76.79
2019-01-15T12:43:44.652Z,77.03
2019-01-15T12:46:32.400Z,76.45
2019-01-15T12:49:20.321Z,76.95
2019-01-15T12:52:03.529Z,77.20
2019-01-15T12:54:51.097Z,76.86
2019-01-15T12:57:40.997Z,76.48
2019-01-15T13:00:31.285Z,76.93
2019-01-15T13:03:29.229Z,77.12
2019-01-15T13:06:15.334Z,76.95
2019-01-15T13:08:59.476Z,76.47
2019-01-15T13:11:54.810Z,76.79
2019-01-15T13:14:38.095Z,76.96
2019-01-15T13:17:26.137Z,77.35
2019-01-15T13:20:12.545Z,77.52
2019-01-15T13:23:01.509Z,77.75
2019-01-15T13:25:49.444Z,77.88
2019-01-15T13:28:48.150Z,77.80
2019-01-15T13:31:34.566Z,77.74
2019-01-15T13:34:35.892Z,78.18
2019-01-15T13:37:25.602Z,78.13
2019-01-15T13:40:23.940Z,77.66
2019-01-15T13:43:03.413Z,77.81
2019-01-15T13:45:52.349Z,77.83
2019-01-15T13:48:49.702Z,77.99
2019-01-15T13:51:48.570Z,77.59
2019-01-15T13:54:44.188Z,77.47
2019-01-15T13:57:38.530Z,77.54
2019-01-15T14:00:21.637Z,77.37
2019-01-15T14:03:26.176Z,77.67
2019-01-15T14:06:17.720Z,77.94
2019-01-15T14:09:12.801Z,77.90
2019-01-15T14:12:17.448Z,77.61
2019-01-15T14:15:15.405Z,77.55
2019-01-15T14:18:10.418Z,78.16
2019-01-15T14:20:59.666Z,78.75
2019-01-15T14:23:51.706Z,78.80
2019-01-15T14:26:46.777Z,78.81
2019-01-15T14:29:44.998Z,78.77
2019-01-15T14:32:33.964Z,78.72
2019-01-15T14:35:33.729Z,78.69
2019-01-15T14:38:25.547Z,79.17
2019-01-15T14:41:14.464Z,79.43
2019-01-15T14:44:04.319Z,79.69
2019-01-15T14:46:52.208Z,79.86
2019-01-15T14:49:34.739Z,79.85
2019-01-15T14:52:13.473Z,79.92
2019-01-15T14:55:20.586Z,80.21
2019-01-15T14:58:09.542Z,80.32
2019-01-15T15:00:58.509Z,80.24
2019-01-15T15:03:59.695Z,80.00
2019-01-15T15:07:06.908Z,80.53
2019-01-15T15:09:54.622Z,80.61
2019-01-15T15:12:43.577Z,81.01
2019-01-15T15:15:24.890Z,80.88
2019-01-15T15:18:06.777Z,81.21
2019-01-15T15:20:52.365Z,81.34
2019-01-15T15:23:37.027Z,81.73
2019-01-15T15:26:25.184Z,81.88
2019-01-15T15:29:17.594Z,82.07
2019-01-15T15:32:12.762Z,82.10
2019-01-15T15:34:56.140Z,82.01
2019-01-15T15:37:45.101Z,82.13
2019-01-15T15:40:30.690Z,82.37
2019-01-15T15:43:26.209Z,82.45
2019-01-15T15:46:27.055Z,82.56
2019-01-15T15:49:20.286Z,82.57
2019-01-15T15:52:00.867Z,82.65
2019-01-15T15:55:02.340Z,82.83
2019-01-15T15:57:39.003Z,82.85
2019-01-15T16:00:31.955Z,82.88
2019-01-15T16:03:31.664Z,83.10
2019-01-15T16:06:19.838Z,82.79
2019-01-15T16:09:00.164Z,82.58
2019-01-15T16:11:58.341Z,82.66
2019-01-15T16:14:46.174Z,82.64
2019-01-15T16:17:33.227Z,82.65
2019-01-15T16:20:34.777Z,82.76
2019-01-15T16:23:19.356Z,82.74
2019-01-15T16:26:08.419Z,82.75
2019-01-15T16:29:08.892Z,82.86
2019-01-15T16:32:01.099Z,82.85
2019-01-15T16:34:49.156Z,82.83
2019-01-15T16:37:35.417Z,82.81
2019-01-15T16:40:30.357Z,82.80
2019-01-15T16:43:19.682Z,82.91
2019-01-15T16:46:07.503Z,83.08
2019-01-15T16:48:55.378Z,82.97
2019-01-15T16:51:44.344Z,82.76
2019-01-15T16:54:29.031Z,82.99
2019-01-15T16:57:17.281Z,82.88
2019-01-15T16:59:58.393Z,82.93
2019-01-15T17:02:53.551Z,82.88
2019-01-15T17:05:37.490Z,83.02
2019-01-15T17:08:35.718Z,82.82
2019-01-15T17:11:43.172Z,83.02
2019-01-15T17:14:35.359Z,83.19
2019-01-15T17:17:23.290Z,83.01
2019-01-15T17:20:24.070Z,83.17
2019-01-15T17:23:25.384Z,83.12
2019-01-15T17:26:26.759Z,82.86
2019-01-15T17:29:12.783Z,82.84
2019-01-15T17:32:00.421Z,82.77
2019-01-15T17:34:44.876Z,82.51
2019-01-15T17:37:33.919Z,82.32
2019-01-15T17:40:35.172Z,82.34
2019-01-15T17:43:24.225Z,81.93
2019-01-15T17:46:10.170Z,81.52
2019-01-15T17:49:02.332Z,81.59
2019-01-15T17:51:49.936Z,81.53
2019-01-15T17:54:37.489Z,81.42
2019-01-15T17:57:29.267Z,81.31
2019-01-15T18:00:24.859Z,81.04
2019-01-15T18:03:15.367Z,81.20
2019-01-15T18:06:23.568Z,80.83
2019-01-15T18:09:15.053Z,80.64
2019-01-15T18:12:02.621Z,80.78
2019-01-15T18:14:50.775Z,80.68
2019-01-15T18:17:32.484Z,80.76
2019-01-15T18:20:18.034Z,80.85
2019-01-15T18:23:19.363Z,80.58
2019-01-15T18:26:14.642Z,80.40
2019-01-15T18:29:07.241Z,80.35
2019-01-15T18:32:07.875Z,80.38
2019-01-15T18:34:53.478Z,80.65
2019-01-15T18:37:41.181Z,80.67
2019-01-15T18:40:29.988Z,80.69
2019-01-15T18:43:19.215Z,80.64
2019-01-15T18:46:14.340Z,80.58
2019-01-15T18:49:03.239Z,80.44
2019-01-15T18:51:58.327Z,80.44
2019-01-15T18:54:56.581Z,80.49
2019-01-15T18:57:48.623Z,80.54
2019-01-15T19:00:35.419Z,80.56
2019-01-15T19:03:23.138Z,80.55
2019-01-15T19:06:00.720Z,80.38
2019-01-15T19:08:55.942Z,80.43
2019-01-15T19:11:47.860Z,80.40
2019-01-15T19:14:35.299Z,80.64
2019-01-15T19:17:33.377Z,80.26
2019-01-15T19:20:25.703Z,80.22
2019-01-15T19:23:14.714Z,80.39
2019-01-15T19:26:02.153Z,80.27
2019-01-15T19:28:53.947Z,80.30
2019-01-15T19:31:47.789Z,80.46
2019-01-15T19:34:35.776Z,80.22
2019-01-15T19:37:23.419Z,80.08
2019-01-15T19:40:02.189Z,80.15
2019-01-15T19:42:49.966Z,80.08
2019-01-15T19:45:42.601Z,80.29
2019-01-15T19:48:41.094Z,79.88
2019-01-15T19:51:36.185Z,80.10
2019-01-15T19:54:30.964Z,80.02
2019-01-15T19:57:34.891Z,80.11
2019-01-15T20:00:20.164Z,80.06
2019-01-15T20:03:12.176Z,79.98
2019-01-15T20:06:00.570Z,80.04
2019-01-15T20:08:52.533Z,79.90
2019-01-15T20:11:40.150Z,80.03
2019-01-15T20:14:26.007Z,80.06
2019-01-15T20:17:18.471Z,80.24
2019-01-15T20:20:02.805Z,80.32
2019-01-15T20:22:50.548Z,80.37
2019-01-15T20:25:42.325Z,80.76
2019-01-15T20:28:41.732Z,80.88
2019-01-15T20:31:36.880Z,80.88
2019-01-15T20:34:28.706Z,81.15
2019-01-15T20:37:25.202Z,81.14
2019-01-15T20:40:12.834Z,81.32
2019-01-15T20:42:50.731Z,81.11
2019-01-15T20:45:39.946Z,81.13
2019-01-15T20:48:20.980Z,81.19
2019-01-15T20:51:08.724Z,81.38
2019-01-15T20:53:53.378Z,81.45
2019-01-15T20:56:54.963Z,81.45
2019-01-15T20:59:52.711Z,81.35
2019-01-15T21:02:41.184Z,81.38
2019-01-15T21:05:36.053Z,81.44
2019-01-15T21:08:29.307Z,81.48
2019-01-15T21:11:16.901Z,81.40
2019-01-15T21:14:05.902Z,81.44
2019-01-15T21:17:01.343Z,81.25
2019-01-15T21:20:02.538Z,81.28
2019-01-15T21:22:57.701Z,81.25
2019-01-15T21:25:44.062Z,81.85
2019-01-15T21:28:51.483Z,82.72
2019-01-15T21:31:49.388Z,83.79
2019-01-15T21:34:36.944Z,84.69
2019-01-15T21:37:24.948Z,85.25
2019-01-15T21:40:03.804Z,85.89
2019-01-15T21:42:51.789Z,86.33
2019-01-15T21:45:39.660Z,86.00
2019-01-15T21:48:43.639Z,86.00
2019-01-15T21:51:38.625Z,86.02
2019-01-15T21:54:26.687Z,86.14
2019-01-15T21:57:07.915Z,86.11
2019-01-15T22:00:02.995Z,86.08
2019-01-15T22:03:08.355Z,86.15
2019-01-15T22:06:06.311Z,86.18
2019-01-15T22:08:55.063Z,85.95
2019-01-15T22:11:38.115Z,86.03
2019-01-15T22:14:37.634Z,86.01
2019-01-15T22:17:25.279Z,85.90
2019-01-15T22:20:13.271Z,85.79
2019-01-15T22:23:00.834Z,85.85
2019-01-15T22:25:49.002Z,85.66
2019-01-15T22:28:30.552Z,85.40
2019-01-15T22:31:18.557Z,85.67
2019-01-15T22:34:10.932Z,85.61
2019-01-15T22:37:06.098Z,85.53
2019-01-15T22:40:13.314Z,85.36
2019-01-15T22:43:00.848Z,85.11
2019-01-15T22:45:48.935Z,85.19
2019-01-15T22:48:36.424Z,85.06
2019-01-15T22:51:28.365Z,84.81
2019-01-15T22:54:21.724Z,84.89
2019-01-15T22:57:13.463Z,85.02
2019-01-15T23:00:17.697Z,85.03
2019-01-15T23:02:58.852Z,85.00
2019-01-15T23:05:50.908Z,84.68
2019-01-15T23:08:31.884Z,84.64
2019-01-15T23:11:16.102Z,84.57
2019-01-15T23:13:57.058Z,84.56
2019-01-15T23:16:58.407Z,84.64
2019-01-15T23:19:46.007Z,84.69
2019-01-15T23:22:34.033Z,84.65
2019-01-15T23:25:31.549Z,84.57
2019-01-15T23:28:30.562Z,84.49
2019-01-15T23:31:20.139Z,84.43
2019-01-15T23:34:01.206Z,84.27
2019-01-15T23:36:59.404Z,84.28
2019-01-15T23:39:51.622Z,84.13
2019-01-15T23:42:40.553Z,84.21
2019-01-15T23:45:19.719Z,84.17
2019-01-15T23:48:11.562Z,84.07
2019-01-15T23:51:09.835Z,84.17
2019-01-15T23:54:02.963Z,83.99
2019-01-15T23:56:48.452Z,83.74
2019-01-15T23:59:36.418Z,84.15
